sensor_id;sensor_type;location;lat;lon;timestamp;pressure;altitude;pressure_sealevel;temperature;humidity
68197;BME280;55019;49.382;11.358;2023-05-02T00:00:39;96624.28;;;7.09;100.00
68197;BME280;55019;49.382;11.358;2023-05-02T00:03:05;96627.31;;;7.05;100.00
68197;BME280;55019;49.382;11.358;2023-05-02T00:05:30;96626.91;;;7.00;100.00
68197;BME280;55019;49.382;11.358;2023-05-02T00:07:56;96625.97;;;7.01;100.00
68197;BME280;55019;49.382;11.358;2023-05-02T00:10:22;96627.88;;;6.99;100.00
68197;BME280;55019;49.382;11.358;2023-05-02T00:12:48;96623.50;;;7.09;100.00
68197;BME280;55019;49.382;11.358;2023-05-02T00:15:13;96629.50;;;7.00;100.00
68197;BME280;55019;49.382;11.358;2023-05-02T00:17:40;96619.78;;;6.94;100.00
68197;BME280;55019;49.382;11.358;2023-05-02T00:20:09;96627.88;;;6.90;100.00
68197;BME280;55019;49.382;11.358;2023-05-02T00:22:36;96626.38;;;6.87;100.00
68197;BME280;55019;49.382;11.358;2023-05-02T00:25:02;96627.19;;;6.97;100.00
68197;BME280;55019;49.382;11.358;2023-05-02T00:27:29;96614.91;;;6.91;100.00
68197;BME280;55019;49.382;11.358;2023-05-02T00:29:55;96612.66;;;6.69;100.00
68197;BME280;55019;49.382;11.358;2023-05-02T00:32:20;96628.00;;;6.88;100.00
68197;BME280;55019;49.382;11.358;2023-05-02T00:34:46;96617.06;;;6.86;100.00
68197;BME280;55019;49.382;11.358;2023-05-02T00:37:12;96621.41;;;6.76;100.00
68197;BME280;55019;49.382;11.358;2023-05-02T00:39:38;96613.59;;;6.68;100.00
68197;BME280;55019;49.382;11.358;2023-05-02T00:42:03;96616.28;;;6.76;100.00
68197;BME280;55019;49.382;11.358;2023-05-02T00:44:30;96617.09;;;6.77;100.00
68197;BME280;55019;49.382;11.358;2023-05-02T00:46:56;96608.06;;;6.63;100.00
68197;BME280;55019;49.382;11.358;2023-05-02T00:49:23;96615.78;;;6.54;100.00
68197;BME280;55019;49.382;11.358;2023-05-02T00:51:49;96626.88;;;6.54;100.00
68197;BME280;55019;49.382;11.358;2023-05-02T00:54:15;96617.94;;;6.58;100.00
68197;BME280;55019;49.382;11.358;2023-05-02T00:56:40;96622.53;;;6.64;100.00
68197;BME280;55019;49.382;11.358;2023-05-02T00:59:08;96623.09;;;6.58;100.00
68197;BME280;55019;49.382;11.358;2023-05-02T01:13:11;96630.94;;;6.47;100.00
68197;BME280;55019;49.382;11.358;2023-05-02T01:15:39;96632.28;;;6.42;100.00
68197;BME280;55019;49.382;11.358;2023-05-02T01:18:08;96638.50;;;6.30;100.00
68197;BME280;55019;49.382;11.358;2023-05-02T01:20:36;96630.13;;;6.18;100.00
68197;BME280;55019;49.382;11.358;2023-05-02T01:23:10;96633.63;;;6.36;100.00
68197;BME280;55019;49.382;11.358;2023-05-02T01:25:57;96639.72;;;6.35;100.00
68197;BME280;55019;49.382;11.358;2023-05-02T01:30:57;96641.06;;;6.20;100.00
68197;BME280;55019;49.382;11.358;2023-05-02T01:33:25;96653.63;;;6.23;100.00
68197;BME280;55019;49.382;11.358;2023-05-02T01:35:53;96650.63;;;6.09;100.00
68197;BME280;55019;49.382;11.358;2023-05-02T01:38:21;96647.69;;;6.13;100.00
68197;BME280;55019;49.382;11.358;2023-05-02T01:40:49;96666.03;;;6.18;100.00
68197;BME280;55019;49.382;11.358;2023-05-02T01:43:18;96657.44;;;6.38;100.00
68197;BME280;55019;49.382;11.358;2023-05-02T01:45:47;96659.84;;;6.30;100.00
68197;BME280;55019;49.382;11.358;2023-05-02T01:48:14;96654.44;;;6.14;100.00
68197;BME280;55019;49.382;11.358;2023-05-02T01:50:43;96656.22;;;6.14;100.00
68197;BME280;55019;49.382;11.358;2023-05-02T01:53:10;96656.03;;;5.96;100.00
68197;BME280;55019;49.382;11.358;2023-05-02T01:55:40;96659.84;;;6.11;100.00
68197;BME280;55019;49.382;11.358;2023-05-02T01:58:08;96655.38;;;6.04;100.00
68197;BME280;55019;49.382;11.358;2023-05-02T02:00:35;96662.91;;;5.96;100.00
68197;BME280;55019;49.382;11.358;2023-05-02T02:03:04;96663.34;;;5.91;100.00
68197;BME280;55019;49.382;11.358;2023-05-02T02:05:30;96665.09;;;6.00;100.00
68197;BME280;55019;49.382;11.358;2023-05-02T02:07:58;96657.66;;;5.97;100.00
68197;BME280;55019;49.382;11.358;2023-05-02T02:10:25;96660.75;;;5.91;100.00
68197;BME280;55019;49.382;11.358;2023-05-02T02:13:01;96660.91;;;6.09;100.00
68197;BME280;55019;49.382;11.358;2023-05-02T02:15:33;96663.06;;;6.13;100.00
68197;BME280;55019;49.382;11.358;2023-05-02T02:18:13;96668.06;;;6.05;100.00
68197;BME280;55019;49.382;11.358;2023-05-02T02:20:44;96668.34;;;6.02;100.00
68197;BME280;55019;49.382;11.358;2023-05-02T02:23:12;96664.94;;;6.02;100.00
68197;BME280;55019;49.382;11.358;2023-05-02T02:25:39;96670.59;;;5.86;100.00
68197;BME280;55019;49.382;11.358;2023-05-02T02:28:06;96668.19;;;6.04;100.00
68197;BME280;55019;49.382;11.358;2023-05-02T02:30:32;96660.63;;;6.02;100.00
68197;BME280;55019;49.382;11.358;2023-05-02T02:32:57;96666.84;;;6.00;100.00
68197;BME280;55019;49.382;11.358;2023-05-02T02:35:28;96667.09;;;5.97;100.00
68197;BME280;55019;49.382;11.358;2023-05-02T02:38:06;96680.88;;;6.05;100.00
68197;BME280;55019;49.382;11.358;2023-05-02T02:40:50;96670.88;;;6.12;100.00
68197;BME280;55019;49.382;11.358;2023-05-02T02:43:41;96664.69;;;5.95;100.00
68197;BME280;55019;49.382;11.358;2023-05-02T02:49:41;96669.22;;;5.82;100.00
68197;BME280;55019;49.382;11.358;2023-05-02T02:54:56;96667.38;;;5.94;100.00
68197;BME280;55019;49.382;11.358;2023-05-02T02:57:41;96675.44;;;5.80;100.00
68197;BME280;55019;49.382;11.358;2023-05-02T03:00:15;96680.50;;;5.70;100.00
68197;BME280;55019;49.382;11.358;2023-05-02T03:02:45;96688.06;;;5.72;100.00
68197;BME280;55019;49.382;11.358;2023-05-02T03:05:13;96683.47;;;5.75;100.00
68197;BME280;55019;49.382;11.358;2023-05-02T03:07:39;96689.81;;;5.71;100.00
68197;BME280;55019;49.382;11.358;2023-05-02T03:10:06;96688.63;;;5.75;100.00
68197;BME280;55019;49.382;11.358;2023-05-02T03:12:33;96696.41;;;5.64;100.00
68197;BME280;55019;49.382;11.358;2023-05-02T03:15:22;96698.84;;;5.66;100.00
68197;BME280;55019;49.382;11.358;2023-05-02T03:17:50;96697.69;;;5.79;100.00
68197;BME280;55019;49.382;11.358;2023-05-02T03:20:16;96702.91;;;5.68;100.00
68197;BME280;55019;49.382;11.358;2023-05-02T03:22:41;96701.41;;;5.66;100.00
68197;BME280;55019;49.382;11.358;2023-05-02T03:25:07;96710.72;;;5.67;100.00
68197;BME280;55019;49.382;11.358;2023-05-02T03:27:33;96715.56;;;5.61;100.00
68197;BME280;55019;49.382;11.358;2023-05-02T03:30:02;96712.16;;;5.60;100.00
68197;BME280;55019;49.382;11.358;2023-05-02T03:32:29;96724.75;;;5.63;100.00
68197;BME280;55019;49.382;11.358;2023-05-02T03:34:55;96717.44;;;5.59;100.00
68197;BME280;55019;49.382;11.358;2023-05-02T03:37:25;96720.31;;;5.74;100.00
68197;BME280;55019;49.382;11.358;2023-05-02T03:39:56;96724.75;;;5.72;100.00
68197;BME280;55019;49.382;11.358;2023-05-02T03:42:21;96720.41;;;5.63;100.00
68197;BME280;55019;49.382;11.358;2023-05-02T03:44:51;96722.59;;;5.68;100.00
68197;BME280;55019;49.382;11.358;2023-05-02T03:47:17;96721.34;;;5.63;100.00
68197;BME280;55019;49.382;11.358;2023-05-02T03:49:43;96722.41;;;5.51;100.00
68197;BME280;55019;49.382;11.358;2023-05-02T03:52:09;96726.75;;;5.60;100.00
68197;BME280;55019;49.382;11.358;2023-05-02T03:54:36;96730.00;;;5.62;100.00
68197;BME280;55019;49.382;11.358;2023-05-02T03:57:03;96732.09;;;5.77;100.00
68197;BME280;55019;49.382;11.358;2023-05-02T03:59:33;96729.03;;;5.83;100.00
68197;BME280;55019;49.382;11.358;2023-05-02T04:02:03;96734.25;;;5.81;100.00
68197;BME280;55019;49.382;11.358;2023-05-02T04:04:39;96737.72;;;5.71;100.00
68197;BME280;55019;49.382;11.358;2023-05-02T04:07:07;96739.88;;;5.66;100.00
68197;BME280;55019;49.382;11.358;2023-05-02T04:09:34;96737.47;;;5.74;100.00
68197;BME280;55019;49.382;11.358;2023-05-02T04:12:07;96739.97;;;5.85;100.00
68197;BME280;55019;49.382;11.358;2023-05-02T04:14:35;96747.44;;;5.97;100.00
68197;BME280;55019;49.382;11.358;2023-05-02T04:17:01;96748.22;;;5.88;100.00
68197;BME280;55019;49.382;11.358;2023-05-02T04:19:35;96749.16;;;5.87;100.00
68197;BME280;55019;49.382;11.358;2023-05-02T04:22:02;96749.72;;;6.00;100.00
68197;BME280;55019;49.382;11.358;2023-05-02T04:24:30;96741.25;;;6.09;100.00
68197;BME280;55019;49.382;11.358;2023-05-02T04:26:56;96747.59;;;6.24;100.00
68197;BME280;55019;49.382;11.358;2023-05-02T04:29:22;96763.81;;;6.34;100.00
68197;BME280;55019;49.382;11.358;2023-05-02T04:31:48;96753.06;;;6.40;100.00
68197;BME280;55019;49.382;11.358;2023-05-02T04:34:15;96764.28;;;6.39;100.00
68197;BME280;55019;49.382;11.358;2023-05-02T04:36:44;96767.50;;;6.41;100.00
68197;BME280;55019;49.382;11.358;2023-05-02T04:39:14;96765.63;;;6.43;100.00
68197;BME280;55019;49.382;11.358;2023-05-02T04:41:45;96773.44;;;6.61;100.00
68197;BME280;55019;49.382;11.358;2023-05-02T04:44:12;96776.16;;;6.59;100.00
68197;BME280;55019;49.382;11.358;2023-05-02T04:46:38;96774.84;;;6.65;100.00
68197;BME280;55019;49.382;11.358;2023-05-02T04:49:04;96785.75;;;6.57;100.00
68197;BME280;55019;49.382;11.358;2023-05-02T04:51:30;96788.72;;;6.62;100.00
68197;BME280;55019;49.382;11.358;2023-05-02T04:53:56;96790.22;;;6.74;100.00
68197;BME280;55019;49.382;11.358;2023-05-02T04:56:22;96800.25;;;6.96;100.00
68197;BME280;55019;49.382;11.358;2023-05-02T04:58:48;96806.72;;;7.00;100.00
68197;BME280;55019;49.382;11.358;2023-05-02T05:01:14;96798.59;;;7.14;100.00
68197;BME280;55019;49.382;11.358;2023-05-02T05:03:40;96811.69;;;7.30;99.85
68197;BME280;55019;49.382;11.358;2023-05-02T05:06:07;96814.66;;;7.54;99.22
68197;BME280;55019;49.382;11.358;2023-05-02T05:08:33;96810.84;;;7.58;99.11
68197;BME280;55019;49.382;11.358;2023-05-02T05:10:59;96815.16;;;7.67;98.72
68197;BME280;55019;49.382;11.358;2023-05-02T05:13:24;96808.44;;;7.47;98.07
68197;BME280;55019;49.382;11.358;2023-05-02T05:15:51;96816.16;;;7.37;100.00
68197;BME280;55019;49.382;11.358;2023-05-02T05:18:19;96814.38;;;7.57;100.00
68197;BME280;55019;49.382;11.358;2023-05-02T05:20:45;96825.31;;;7.68;99.17
68197;BME280;55019;49.382;11.358;2023-05-02T05:23:11;96808.88;;;7.88;98.74
68197;BME280;55019;49.382;11.358;2023-05-02T05:25:37;96818.31;;;7.97;98.65
68197;BME280;55019;49.382;11.358;2023-05-02T05:28:05;96828.47;;;7.99;98.28
68197;BME280;55019;49.382;11.358;2023-05-02T05:30:33;96829.63;;;8.14;97.58
68197;BME280;55019;49.382;11.358;2023-05-02T05:33:00;96832.19;;;8.14;97.59
68197;BME280;55019;49.382;11.358;2023-05-02T05:35:26;96838.88;;;8.07;99.30
68197;BME280;55019;49.382;11.358;2023-05-02T05:37:52;96838.19;;;8.41;98.51
68197;BME280;55019;49.382;11.358;2023-05-02T05:40:18;96835.66;;;8.58;97.37
68197;BME280;55019;49.382;11.358;2023-05-02T05:42:50;96838.34;;;8.84;96.28
68197;BME280;55019;49.382;11.358;2023-05-02T05:45:22;96843.34;;;8.85;95.89
68197;BME280;55019;49.382;11.358;2023-05-02T05:47:48;96840.75;;;8.85;96.12
68197;BME280;55019;49.382;11.358;2023-05-02T05:50:14;96844.19;;;9.03;95.75
68197;BME280;55019;49.382;11.358;2023-05-02T05:52:41;96848.81;;;9.17;94.47
68197;BME280;55019;49.382;11.358;2023-05-02T05:55:07;96843.47;;;9.36;94.58
68197;BME280;55019;49.382;11.358;2023-05-02T05:57:34;96846.16;;;9.44;94.84
68197;BME280;55019;49.382;11.358;2023-05-02T06:00:00;96852.81;;;9.55;95.06
68197;BME280;55019;49.382;11.358;2023-05-02T06:02:26;96853.28;;;9.50;95.05
68197;BME280;55019;49.382;11.358;2023-05-02T06:04:52;96856.34;;;9.54;96.35
68197;BME280;55019;49.382;11.358;2023-05-02T06:07:21;96863.31;;;9.53;96.69
68197;BME280;55019;49.382;11.358;2023-05-02T06:09:46;96871.94;;;9.09;98.91
68197;BME280;55019;49.382;11.358;2023-05-02T06:12:13;96862.50;;;9.00;100.00
68197;BME280;55019;49.382;11.358;2023-05-02T06:14:41;96864.28;;;9.17;100.00
68197;BME280;55019;49.382;11.358;2023-05-02T06:17:07;96861.75;;;9.25;100.00
68197;BME280;55019;49.382;11.358;2023-05-02T06:19:33;96869.94;;;9.03;100.00
68197;BME280;55019;49.382;11.358;2023-05-02T06:21:58;96869.94;;;8.86;100.00
68197;BME280;55019;49.382;11.358;2023-05-02T06:24:24;96882.09;;;9.28;100.00
68197;BME280;55019;49.382;11.358;2023-05-02T06:26:50;96878.78;;;9.18;100.00
68197;BME280;55019;49.382;11.358;2023-05-02T06:29:16;96886.28;;;9.29;99.93
68197;BME280;55019;49.382;11.358;2023-05-02T06:31:41;96892.03;;;9.23;100.00
68197;BME280;55019;49.382;11.358;2023-05-02T06:34:07;96886.81;;;9.15;100.00
68197;BME280;55019;49.382;11.358;2023-05-02T06:36:33;96885.13;;;9.24;100.00
68197;BME280;55019;49.382;11.358;2023-05-02T06:38:58;96893.44;;;9.35;99.77
68197;BME280;55019;49.382;11.358;2023-05-02T06:41:24;96894.75;;;9.39;99.70
68197;BME280;55019;49.382;11.358;2023-05-02T06:43:49;96897.13;;;9.50;100.00
68197;BME280;55019;49.382;11.358;2023-05-02T06:46:15;96908.31;;;9.41;100.00
68197;BME280;55019;49.382;11.358;2023-05-02T06:48:41;96904.63;;;9.61;98.74
68197;BME280;55019;49.382;11.358;2023-05-02T06:51:07;96919.09;;;9.54;98.91
68197;BME280;55019;49.382;11.358;2023-05-02T06:53:33;96912.63;;;9.50;97.63
68197;BME280;55019;49.382;11.358;2023-05-02T06:55:59;96924.00;;;9.65;98.17
68197;BME280;55019;49.382;11.358;2023-05-02T06:58:24;96925.03;;;9.55;99.83
68197;BME280;55019;49.382;11.358;2023-05-02T07:00:50;96926.28;;;9.68;100.00
68197;BME280;55019;49.382;11.358;2023-05-02T07:03:16;96932.09;;;10.05;99.48
68197;BME280;55019;49.382;11.358;2023-05-02T07:05:41;96938.41;;;9.93;96.56
68197;BME280;55019;49.382;11.358;2023-05-02T07:08:07;96946.53;;;9.98;97.65
68197;BME280;55019;49.382;11.358;2023-05-02T07:10:33;96933.19;;;10.02;95.59
68197;BME280;55019;49.382;11.358;2023-05-02T07:12:59;96946.03;;;10.12;94.46
68197;BME280;55019;49.382;11.358;2023-05-02T07:15:24;96944.75;;;10.16;94.34
68197;BME280;55019;49.382;11.358;2023-05-02T07:17:50;96947.13;;;10.35;93.87
68197;BME280;55019;49.382;11.358;2023-05-02T07:20:16;96956.03;;;10.15;94.21
68197;BME280;55019;49.382;11.358;2023-05-02T07:22:41;96955.09;;;10.16;93.96
68197;BME280;55019;49.382;11.358;2023-05-02T07:25:08;96950.22;;;10.13;93.96
68197;BME280;55019;49.382;11.358;2023-05-02T07:27:33;96954.56;;;10.12;93.98
68197;BME280;55019;49.382;11.358;2023-05-02T07:29:59;96960.13;;;9.83;95.04
68197;BME280;55019;49.382;11.358;2023-05-02T07:32:25;96961.88;;;9.99;93.81
68197;BME280;55019;49.382;11.358;2023-05-02T07:34:51;96968.59;;;9.75;94.74
68197;BME280;55019;49.382;11.358;2023-05-02T07:37:20;96964.16;;;9.85;94.73
68197;BME280;55019;49.382;11.358;2023-05-02T07:39:46;96975.31;;;9.86;94.04
68197;BME280;55019;49.382;11.358;2023-05-02T07:42:14;96973.47;;;9.78;94.28
68197;BME280;55019;49.382;11.358;2023-05-02T07:44:40;96976.47;;;9.91;94.29
68197;BME280;55019;49.382;11.358;2023-05-02T07:47:07;96982.28;;;9.93;95.74
68197;BME280;55019;49.382;11.358;2023-05-02T07:49:33;96985.56;;;9.95;95.37
68197;BME280;55019;49.382;11.358;2023-05-02T07:51:59;96982.81;;;9.97;94.04
68197;BME280;55019;49.382;11.358;2023-05-02T07:54:24;96988.88;;;10.22;92.49
68197;BME280;55019;49.382;11.358;2023-05-02T07:56:53;96979.88;;;10.26;91.28
68197;BME280;55019;49.382;11.358;2023-05-02T07:59:21;96989.16;;;10.45;91.29
68197;BME280;55019;49.382;11.358;2023-05-02T08:01:46;96988.13;;;10.63;89.93
68197;BME280;55019;49.382;11.358;2023-05-02T08:04:12;96998.91;;;10.76;89.29
68197;BME280;55019;49.382;11.358;2023-05-02T08:06:38;96998.59;;;10.54;88.93
68197;BME280;55019;49.382;11.358;2023-05-02T08:09:03;97005.09;;;10.58;89.68
68197;BME280;55019;49.382;11.358;2023-05-02T08:11:29;97014.19;;;10.70;90.06
68197;BME280;55019;49.382;11.358;2023-05-02T08:13:55;97008.47;;;10.15;90.54
68197;BME280;55019;49.382;11.358;2023-05-02T08:16:21;97006.88;;;9.97;91.86
68197;BME280;55019;49.382;11.358;2023-05-02T08:18:46;97013.44;;;10.09;93.20
68197;BME280;55019;49.382;11.358;2023-05-02T08:21:12;97010.19;;;10.24;91.54
68197;BME280;55019;49.382;11.358;2023-05-02T08:23:40;97018.78;;;10.33;92.50
68197;BME280;55019;49.382;11.358;2023-05-02T08:26:06;97018.03;;;10.66;89.73
68197;BME280;55019;49.382;11.358;2023-05-02T08:28:34;97015.59;;;10.64;90.31
68197;BME280;55019;49.382;11.358;2023-05-02T08:30:59;97022.59;;;10.46;90.69
68197;BME280;55019;49.382;11.358;2023-05-02T08:33:25;97019.34;;;10.70;90.64
68197;BME280;55019;49.382;11.358;2023-05-02T08:35:51;97019.09;;;10.81;88.89
68197;BME280;55019;49.382;11.358;2023-05-02T08:38:17;97017.66;;;10.78;89.29
68197;BME280;55019;49.382;11.358;2023-05-02T08:40:43;97025.03;;;10.99;88.78
68197;BME280;55019;49.382;11.358;2023-05-02T08:43:10;97022.38;;;11.24;87.25
68197;BME280;55019;49.382;11.358;2023-05-02T08:45:41;97020.00;;;11.46;86.45
68197;BME280;55019;49.382;11.358;2023-05-02T08:48:08;97024.31;;;11.71;84.20
68197;BME280;55019;49.382;11.358;2023-05-02T08:50:40;97020.13;;;11.78;84.15
68197;BME280;55019;49.382;11.358;2023-05-02T08:53:07;97023.06;;;11.99;83.41
68197;BME280;55019;49.382;11.358;2023-05-02T08:55:34;97024.84;;;12.39;80.38
68197;BME280;55019;49.382;11.358;2023-05-02T08:58:00;97028.50;;;12.76;80.00
68197;BME280;55019;49.382;11.358;2023-05-02T09:00:27;97027.50;;;12.85;78.87
68197;BME280;55019;49.382;11.358;2023-05-02T09:03:05;97033.66;;;13.08;77.39
68197;BME280;55019;49.382;11.358;2023-05-02T09:05:38;97030.28;;;13.38;73.99
68197;BME280;55019;49.382;11.358;2023-05-02T09:08:05;97036.00;;;13.64;74.59
68197;BME280;55019;49.382;11.358;2023-05-02T09:10:33;97039.97;;;14.05;75.61
68197;BME280;55019;49.382;11.358;2023-05-02T09:16:05;97034.34;;;14.60;69.53
68197;BME280;55019;49.382;11.358;2023-05-02T09:18:34;97052.75;;;14.73;71.31
68197;BME280;55019;49.382;11.358;2023-05-02T09:21:04;97054.59;;;13.98;76.24
68197;BME280;55019;49.382;11.358;2023-05-02T09:23:32;97049.59;;;13.96;77.51
68197;BME280;55019;49.382;11.358;2023-05-02T09:25:58;97051.63;;;13.86;77.23
68197;BME280;55019;49.382;11.358;2023-05-02T09:28:41;97050.75;;;13.94;78.34
68197;BME280;55019;49.382;11.358;2023-05-02T09:31:09;97047.78;;;14.05;76.05
68197;BME280;55019;49.382;11.358;2023-05-02T09:33:37;97049.53;;;13.82;78.01
68197;BME280;55019;49.382;11.358;2023-05-02T09:36:03;97058.44;;;13.49;81.17
68197;BME280;55019;49.382;11.358;2023-05-02T09:38:28;97051.03;;;13.38;80.59
68197;BME280;55019;49.382;11.358;2023-05-02T09:40:54;97051.94;;;13.61;76.55
68197;BME280;55019;49.382;11.358;2023-05-02T09:43:21;97051.94;;;13.61;78.96
68197;BME280;55019;49.382;11.358;2023-05-02T09:45:57;97059.41;;;13.56;79.71
68197;BME280;55019;49.382;11.358;2023-05-02T09:48:23;97055.44;;;13.37;80.19
68197;BME280;55019;49.382;11.358;2023-05-02T09:50:49;97060.22;;;13.18;79.33
68197;BME280;55019;49.382;11.358;2023-05-02T09:53:15;97048.25;;;13.09;80.17
68197;BME280;55019;49.382;11.358;2023-05-02T09:55:41;97052.50;;;12.78;80.41
68197;BME280;55019;49.382;11.358;2023-05-02T09:58:19;97058.53;;;12.47;82.28
68197;BME280;55019;49.382;11.358;2023-05-02T10:00:46;97061.88;;;12.87;81.88
68197;BME280;55019;49.382;11.358;2023-05-02T10:03:15;97058.94;;;13.14;79.66
68197;BME280;55019;49.382;11.358;2023-05-02T10:05:42;97060.84;;;13.20;79.59
68197;BME280;55019;49.382;11.358;2023-05-02T10:08:08;97070.84;;;13.31;81.71
68197;BME280;55019;49.382;11.358;2023-05-02T10:10:44;97062.25;;;13.99;80.89
68197;BME280;55019;49.382;11.358;2023-05-02T10:13:12;97079.91;;;14.56;74.95
68197;BME280;55019;49.382;11.358;2023-05-02T10:15:49;97068.59;;;15.30;73.02
68197;BME280;55019;49.382;11.358;2023-05-02T10:18:32;97067.69;;;16.01;63.87
68197;BME280;55019;49.382;11.358;2023-05-02T10:21:19;97059.63;;;15.61;64.72
68197;BME280;55019;49.382;11.358;2023-05-02T10:23:49;97064.16;;;16.09;61.78
68197;BME280;55019;49.382;11.358;2023-05-02T10:26:18;97070.75;;;16.68;61.64
68197;BME280;55019;49.382;11.358;2023-05-02T10:28:46;97057.78;;;17.82;64.20
68197;BME280;55019;49.382;11.358;2023-05-02T10:31:13;97063.56;;;19.35;60.18
68197;BME280;55019;49.382;11.358;2023-05-02T10:33:39;97065.41;;;19.28;54.73
68197;BME280;55019;49.382;11.358;2023-05-02T10:36:10;97070.56;;;19.54;54.72
68197;BME280;55019;49.382;11.358;2023-05-02T10:38:39;97059.09;;;19.42;56.09
68197;BME280;55019;49.382;11.358;2023-05-02T10:41:16;97065.53;;;19.46;52.41
68197;BME280;55019;49.382;11.358;2023-05-02T10:43:48;97056.31;;;19.11;52.53
68197;BME280;55019;49.382;11.358;2023-05-02T10:46:33;97061.44;;;19.63;57.15
68197;BME280;55019;49.382;11.358;2023-05-02T10:51:27;97050.25;;;19.36;54.67
68197;BME280;55019;49.382;11.358;2023-05-02T10:59:34;97045.88;;;17.67;56.00
68197;BME280;55019;49.382;11.358;2023-05-02T11:02:00;97045.22;;;17.58;56.26
68197;BME280;55019;49.382;11.358;2023-05-02T11:05:01;97046.19;;;18.04;54.51
68197;BME280;55019;49.382;11.358;2023-05-02T11:07:31;97038.81;;;16.93;58.30
68197;BME280;55019;49.382;11.358;2023-05-02T11:12:55;97041.69;;;17.79;55.46
68197;BME280;55019;49.382;11.358;2023-05-02T11:18:02;97040.56;;;18.07;53.96
68197;BME280;55019;49.382;11.358;2023-05-02T11:20:32;97040.31;;;17.89;54.17
68197;BME280;55019;49.382;11.358;2023-05-02T11:23:18;97035.56;;;19.29;52.57
68197;BME280;55019;49.382;11.358;2023-05-02T11:25:56;97031.72;;;20.26;51.42
68197;BME280;55019;49.382;11.358;2023-05-02T11:31:07;97022.72;;;20.95;47.02
68197;BME280;55019;49.382;11.358;2023-05-02T11:33:33;97024.28;;;21.38;46.94
68197;BME280;55019;49.382;11.358;2023-05-02T11:35:59;97025.16;;;21.32;44.15
68197;BME280;55019;49.382;11.358;2023-05-02T11:38:27;97017.19;;;21.57;43.44
68197;BME280;55019;49.382;11.358;2023-05-02T11:41:00;97018.28;;;21.67;46.55
68197;BME280;55019;49.382;11.358;2023-05-02T11:43:27;97019.31;;;22.13;41.22
68197;BME280;55019;49.382;11.358;2023-05-02T11:45:54;97017.34;;;22.50;40.11
68197;BME280;55019;49.382;11.358;2023-05-02T11:48:22;97023.56;;;22.67;42.32
68197;BME280;55019;49.382;11.358;2023-05-02T11:50:50;97012.13;;;22.96;39.34
68197;BME280;55019;49.382;11.358;2023-05-02T11:53:22;97010.25;;;23.93;40.93
68197;BME280;55019;49.382;11.358;2023-05-02T11:55:49;97019.16;;;22.38;38.37
68197;BME280;55019;49.382;11.358;2023-05-02T11:58:20;97014.78;;;23.19;37.97
68197;BME280;55019;49.382;11.358;2023-05-02T12:00:47;97007.44;;;22.86;39.22
68197;BME280;55019;49.382;11.358;2023-05-02T12:03:23;97014.19;;;21.35;41.88
68197;BME280;55019;49.382;11.358;2023-05-02T12:05:49;97026.06;;;19.85;45.73
68197;BME280;55019;49.382;11.358;2023-05-02T12:08:23;97030.19;;;18.92;48.64
68197;BME280;55019;49.382;11.358;2023-05-02T12:10:50;97025.59;;;19.57;47.00
68197;BME280;55019;49.382;11.358;2023-05-02T12:13:17;97029.97;;;19.76;47.31
68197;BME280;55019;49.382;11.358;2023-05-02T12:15:43;97028.06;;;19.39;49.07
68197;BME280;55019;49.382;11.358;2023-05-02T12:18:11;97027.34;;;18.35;49.90
68197;BME280;55019;49.382;11.358;2023-05-02T12:20:37;97024.31;;;17.58;50.22
68197;BME280;55019;49.382;11.358;2023-05-02T12:23:04;97034.44;;;17.81;49.14
68197;BME280;55019;49.382;11.358;2023-05-02T12:25:37;97027.09;;;17.44;51.11
68197;BME280;55019;49.382;11.358;2023-05-02T12:28:03;97039.81;;;17.26;50.20
68197;BME280;55019;49.382;11.358;2023-05-02T12:30:29;97034.72;;;17.39;50.73
68197;BME280;55019;49.382;11.358;2023-05-02T12:32:56;97025.38;;;17.30;52.13
68197;BME280;55019;49.382;11.358;2023-05-02T12:35:30;97026.28;;;17.10;50.52
68197;BME280;55019;49.382;11.358;2023-05-02T12:38:16;97030.19;;;17.27;51.76
68197;BME280;55019;49.382;11.358;2023-05-02T12:41:00;97029.09;;;16.81;51.64
68197;BME280;55019;49.382;11.358;2023-05-02T12:43:26;97031.72;;;16.81;52.08
68197;BME280;55019;49.382;11.358;2023-05-02T12:46:08;97035.72;;;16.83;51.61
68197;BME280;55019;49.382;11.358;2023-05-02T12:48:34;97036.56;;;17.18;52.78
68197;BME280;55019;49.382;11.358;2023-05-02T12:51:00;97040.19;;;17.17;53.26
68197;BME280;55019;49.382;11.358;2023-05-02T12:56:09;97041.50;;;17.34;53.00
68197;BME280;55019;49.382;11.358;2023-05-02T12:58:43;97040.72;;;17.40;52.66
68197;BME280;55019;49.382;11.358;2023-05-02T13:01:09;97038.25;;;16.98;52.33
68197;BME280;55019;49.382;11.358;2023-05-02T13:03:35;97041.06;;;16.27;53.14
68197;BME280;55019;49.382;11.358;2023-05-02T13:06:01;97044.47;;;16.06;54.26
68197;BME280;55019;49.382;11.358;2023-05-02T13:08:27;97048.94;;;16.12;55.07
68197;BME280;55019;49.382;11.358;2023-05-02T13:10:52;97056.50;;;16.07;55.78
68197;BME280;55019;49.382;11.358;2023-05-02T13:13:18;97060.75;;;15.73;57.92
68197;BME280;55019;49.382;11.358;2023-05-02T13:15:44;97049.97;;;15.62;56.24
68197;BME280;55019;49.382;11.358;2023-05-02T13:18:10;97060.88;;;15.65;56.45
68197;BME280;55019;49.382;11.358;2023-05-02T13:20:35;97060.28;;;15.84;55.88
68197;BME280;55019;49.382;11.358;2023-05-02T13:23:01;97063.06;;;15.83;53.98
68197;BME280;55019;49.382;11.358;2023-05-02T13:25:27;97053.59;;;15.96;51.05
68197;BME280;55019;49.382;11.358;2023-05-02T13:27:52;97062.19;;;16.53;51.44
68197;BME280;55019;49.382;11.358;2023-05-02T13:30:18;97052.31;;;17.31;49.52
68197;BME280;55019;49.382;11.358;2023-05-02T13:32:46;97058.19;;;17.79;50.20
68197;BME280;55019;49.382;11.358;2023-05-02T13:35:20;97034.63;;;18.65;48.12
68197;BME280;55019;49.382;11.358;2023-05-02T13:37:45;97041.56;;;18.00;48.20
68197;BME280;55019;49.382;11.358;2023-05-02T13:40:11;97060.97;;;17.78;47.57